sensor_id;sensor_type;location;lat;lon;timestamp;P1;durP1;ratioP1;P2;durP2;ratioP2
59468;SDS011;45277;52.768;18.262;2023-09-19T00:00:51;21.50;;;13.88;;
59468;SDS011;45277;52.768;18.262;2023-09-19T00:02:41;18.00;;;13.75;;
59468;SDS011;45277;52.768;18.262;2023-09-19T00:04:18;19.05;;;13.27;;
59468;SDS011;45277;52.768;18.262;2023-09-19T00:05:53;18.55;;;14.10;;
59468;SDS011;45277;52.768;18.262;2023-09-19T00:07:26;18.70;;;13.00;;
59468;SDS011;45277;52.768;18.262;2023-09-19T00:08:58;18.67;;;13.70;;
59468;SDS011;45277;52.768;18.262;2023-09-19T00:10:31;21.38;;;13.77;;
59468;SDS011;45277;52.768;18.262;2023-09-19T00:12:06;17.70;;;13.88;;
59468;SDS011;45277;52.768;18.262;2023-09-19T00:13:40;18.60;;;13.38;;
59468;SDS011;45277;52.768;18.262;2023-09-19T00:15:11;22.25;;;14.35;;
59468;SDS011;45277;52.768;18.262;2023-09-19T00:16:42;21.17;;;14.02;;
59468;SDS011;45277;52.768;18.262;2023-09-19T00:18:14;20.60;;;14.27;;
59468;SDS011;45277;52.768;18.262;2023-09-19T00:19:47;17.83;;;13.75;;
59468;SDS011;45277;52.768;18.262;2023-09-19T00:21:19;19.63;;;14.38;;
59468;SDS011;45277;52.768;18.262;2023-09-19T00:22:51;20.45;;;14.50;;
59468;SDS011;45277;52.768;18.262;2023-09-19T00:24:23;14.82;;;12.57;;
59468;SDS011;45277;52.768;18.262;2023-09-19T00:25:58;23.55;;;14.30;;
59468;SDS011;45277;52.768;18.262;2023-09-19T00:27:30;25.08;;;14.25;;
59468;SDS011;45277;52.768;18.262;2023-09-19T00:29:02;16.77;;;13.98;;
59468;SDS011;45277;52.768;18.262;2023-09-19T00:30:34;19.20;;;14.05;;
59468;SDS011;45277;52.768;18.262;2023-09-19T00:32:06;19.25;;;14.18;;
59468;SDS011;45277;52.768;18.262;2023-09-19T00:33:39;17.90;;;13.30;;
59468;SDS011;45277;52.768;18.262;2023-09-19T00:35:10;23.27;;;14.32;;
59468;SDS011;45277;52.768;18.262;2023-09-19T00:36:41;16.98;;;13.75;;
59468;SDS011;45277;52.768;18.262;2023-09-19T00:38:13;21.85;;;14.55;;
59468;SDS011;45277;52.768;18.262;2023-09-19T00:39:50;18.08;;;13.65;;
59468;SDS011;45277;52.768;18.262;2023-09-19T00:41:22;15.45;;;13.10;;
59468;SDS011;45277;52.768;18.262;2023-09-19T00:42:57;15.35;;;13.25;;
59468;SDS011;45277;52.768;18.262;2023-09-19T00:44:31;14.73;;;12.63;;
59468;SDS011;45277;52.768;18.262;2023-09-19T00:46:05;15.13;;;12.70;;
59468;SDS011;45277;52.768;18.262;2023-09-19T00:47:42;17.30;;;12.27;;
59468;SDS011;45277;52.768;18.262;2023-09-19T00:49:19;15.30;;;12.50;;
59468;SDS011;45277;52.768;18.262;2023-09-19T00:50:53;14.48;;;11.60;;
59468;SDS011;45277;52.768;18.262;2023-09-19T00:52:25;14.70;;;11.45;;
59468;SDS011;45277;52.768;18.262;2023-09-19T00:53:57;15.35;;;11.27;;
59468;SDS011;45277;52.768;18.262;2023-09-19T00:55:30;11.95;;;9.68;;
59468;SDS011;45277;52.768;18.262;2023-09-19T00:57:03;12.85;;;10.50;;
59468;SDS011;45277;52.768;18.262;2023-09-19T00:58:34;13.85;;;9.55;;
59468;SDS011;45277;52.768;18.262;2023-09-19T01:00:08;12.05;;;9.43;;
59468;SDS011;45277;52.768;18.262;2023-09-19T01:04:01;13.77;;;9.02;;
59468;SDS011;45277;52.768;18.262;2023-09-19T01:05:33;12.05;;;8.85;;
59468;SDS011;45277;52.768;18.262;2023-09-19T01:07:07;16.77;;;10.02;;
59468;SDS011;45277;52.768;18.262;2023-09-19T01:08:38;13.45;;;9.10;;
59468;SDS011;45277;52.768;18.262;2023-09-19T01:10:14;11.18;;;8.32;;
59468;SDS011;45277;52.768;18.262;2023-09-19T01:11:48;11.50;;;6.80;;
59468;SDS011;45277;52.768;18.262;2023-09-19T01:17:20;11.45;;;8.77;;
59468;SDS011;45277;52.768;18.262;2023-09-19T01:27:06;9.07;;;7.68;;
59468;SDS011;45277;52.768;18.262;2023-09-19T01:31:04;9.75;;;6.40;;
59468;SDS011;45277;52.768;18.262;2023-09-19T01:32:40;9.07;;;6.60;;
59468;SDS011;45277;52.768;18.262;2023-09-19T01:34:12;9.45;;;6.40;;
59468;SDS011;45277;52.768;18.262;2023-09-19T01:35:43;10.85;;;6.55;;
59468;SDS011;45277;52.768;18.262;2023-09-19T01:37:16;8.93;;;6.47;;
59468;SDS011;45277;52.768;18.262;2023-09-19T01:38:54;7.38;;;5.85;;
59468;SDS011;45277;52.768;18.262;2023-09-19T01:40:29;10.13;;;5.70;;
59468;SDS011;45277;52.768;18.262;2023-09-19T01:42:10;6.35;;;5.38;;
59468;SDS011;45277;52.768;18.262;2023-09-19T01:44:01;9.18;;;5.30;;
59468;SDS011;45277;52.768;18.262;2023-09-19T01:47:23;13.25;;;5.30;;
59468;SDS011;45277;52.768;18.262;2023-09-19T01:51:42;7.68;;;5.45;;
59468;SDS011;45277;52.768;18.262;2023-09-19T01:54:08;6.45;;;5.07;;
59468;SDS011;45277;52.768;18.262;2023-09-19T01:55:15;8.10;;;5.45;;
59468;SDS011;45277;52.768;18.262;2023-09-19T01:57:14;8.13;;;5.35;;
59468;SDS011;45277;52.768;18.262;2023-09-19T01:59:04;8.93;;;5.38;;
59468;SDS011;45277;52.768;18.262;2023-09-19T02:00:40;9.32;;;5.53;;
59468;SDS011;45277;52.768;18.262;2023-09-19T02:02:13;7.65;;;5.55;;
59468;SDS011;45277;52.768;18.262;2023-09-19T02:03:47;8.93;;;5.65;;
59468;SDS011;45277;52.768;18.262;2023-09-19T02:05:23;10.45;;;5.43;;
59468;SDS011;45277;52.768;18.262;2023-09-19T02:06:56;9.30;;;5.05;;
59468;SDS011;45277;52.768;18.262;2023-09-19T02:08:28;6.28;;;5.07;;
59468;SDS011;45277;52.768;18.262;2023-09-19T02:10:04;7.55;;;4.88;;
59468;SDS011;45277;52.768;18.262;2023-09-19T02:11:36;8.07;;;4.55;;
59468;SDS011;45277;52.768;18.262;2023-09-19T02:13:08;5.35;;;4.57;;
59468;SDS011;45277;52.768;18.262;2023-09-19T02:14:40;9.70;;;5.22;;
59468;SDS011;45277;52.768;18.262;2023-09-19T02:16:11;6.45;;;4.32;;
59468;SDS011;45277;52.768;18.262;2023-09-19T02:17:43;6.47;;;4.30;;
59468;SDS011;45277;52.768;18.262;2023-09-19T02:19:16;7.70;;;4.70;;
59468;SDS011;45277;52.768;18.262;2023-09-19T02:20:48;5.20;;;4.35;;
59468;SDS011;45277;52.768;18.262;2023-09-19T02:22:19;7.40;;;4.35;;
59468;SDS011;45277;52.768;18.262;2023-09-19T02:23:50;7.55;;;4.38;;
59468;SDS011;45277;52.768;18.262;2023-09-19T02:25:22;8.75;;;4.95;;
59468;SDS011;45277;52.768;18.262;2023-09-19T02:26:53;8.50;;;5.57;;
59468;SDS011;45277;52.768;18.262;2023-09-19T02:28:26;8.32;;;5.00;;
59468;SDS011;45277;52.768;18.262;2023-09-19T02:30:03;6.93;;;5.20;;
59468;SDS011;45277;52.768;18.262;2023-09-19T02:31:36;9.18;;;5.35;;
59468;SDS011;45277;52.768;18.262;2023-09-19T02:33:08;8.63;;;5.60;;
59468;SDS011;45277;52.768;18.262;2023-09-19T02:34:39;8.27;;;6.10;;
59468;SDS011;45277;52.768;18.262;2023-09-19T02:36:12;8.57;;;5.30;;
59468;SDS011;45277;52.768;18.262;2023-09-19T02:37:47;8.13;;;5.88;;
59468;SDS011;45277;52.768;18.262;2023-09-19T02:39:20;8.80;;;5.35;;
59468;SDS011;45277;52.768;18.262;2023-09-19T02:40:51;11.25;;;5.15;;
59468;SDS011;45277;52.768;18.262;2023-09-19T02:42:23;7.82;;;5.40;;
59468;SDS011;45277;52.768;18.262;2023-09-19T02:43:55;8.95;;;5.50;;
59468;SDS011;45277;52.768;18.262;2023-09-19T02:45:26;9.90;;;6.15;;
59468;SDS011;45277;52.768;18.262;2023-09-19T02:46:57;11.13;;;5.30;;
59468;SDS011;45277;52.768;18.262;2023-09-19T02:48:29;10.43;;;5.95;;
59468;SDS011;45277;52.768;18.262;2023-09-19T02:50:02;10.48;;;5.63;;
59468;SDS011;45277;52.768;18.262;2023-09-19T02:51:34;9.55;;;5.32;;
59468;SDS011;45277;52.768;18.262;2023-09-19T02:53:05;7.28;;;5.38;;
59468;SDS011;45277;52.768;18.262;2023-09-19T02:54:37;5.93;;;4.53;;
59468;SDS011;45277;52.768;18.262;2023-09-19T02:56:08;6.60;;;4.85;;
59468;SDS011;45277;52.768;18.262;2023-09-19T02:57:47;8.00;;;4.18;;
59468;SDS011;45277;52.768;18.262;2023-09-19T02:59:19;6.45;;;3.92;;
59468;SDS011;45277;52.768;18.262;2023-09-19T03:00:50;4.72;;;3.70;;
59468;SDS011;45277;52.768;18.262;2023-09-19T03:02:22;6.38;;;3.55;;
59468;SDS011;45277;52.768;18.262;2023-09-19T03:03:54;5.80;;;3.85;;
59468;SDS011;45277;52.768;18.262;2023-09-19T03:05:26;8.52;;;4.20;;
59468;SDS011;45277;52.768;18.262;2023-09-19T03:07:01;9.82;;;4.00;;
59468;SDS011;45277;52.768;18.262;2023-09-19T03:08:33;7.95;;;4.32;;
59468;SDS011;45277;52.768;18.262;2023-09-19T03:10:06;9.82;;;4.75;;
59468;SDS011;45277;52.768;18.262;2023-09-19T03:11:39;8.23;;;4.65;;
59468;SDS011;45277;52.768;18.262;2023-09-19T03:13:12;8.77;;;4.32;;
59468;SDS011;45277;52.768;18.262;2023-09-19T03:14:45;8.15;;;4.47;;
59468;SDS011;45277;52.768;18.262;2023-09-19T03:16:17;6.75;;;4.65;;
59468;SDS011;45277;52.768;18.262;2023-09-19T03:17:49;10.73;;;4.40;;
59468;SDS011;45277;52.768;18.262;2023-09-19T03:19:22;10.85;;;4.70;;
59468;SDS011;45277;52.768;18.262;2023-09-19T03:20:54;7.70;;;4.80;;
59468;SDS011;45277;52.768;18.262;2023-09-19T03:22:27;7.20;;;4.70;;
59468;SDS011;45277;52.768;18.262;2023-09-19T03:23:58;8.68;;;5.22;;
59468;SDS011;45277;52.768;18.262;2023-09-19T03:25:30;7.05;;;4.43;;
59468;SDS011;45277;52.768;18.262;2023-09-19T03:27:01;6.50;;;4.88;;
59468;SDS011;45277;52.768;18.262;2023-09-19T03:28:33;6.55;;;4.35;;
59468;SDS011;45277;52.768;18.262;2023-09-19T03:30:06;8.00;;;3.80;;
59468;SDS011;45277;52.768;18.262;2023-09-19T03:31:43;5.85;;;3.80;;
59468;SDS011;45277;52.768;18.262;2023-09-19T03:33:16;9.13;;;3.67;;
59468;SDS011;45277;52.768;18.262;2023-09-19T03:34:47;8.38;;;4.13;;
59468;SDS011;45277;52.768;18.262;2023-09-19T03:36:19;5.30;;;3.72;;
59468;SDS011;45277;52.768;18.262;2023-09-19T03:37:50;5.63;;;3.92;;
59468;SDS011;45277;52.768;18.262;2023-09-19T03:39:23;5.90;;;4.05;;
59468;SDS011;45277;52.768;18.262;2023-09-19T03:40:54;10.55;;;4.10;;
59468;SDS011;45277;52.768;18.262;2023-09-19T03:42:26;5.20;;;3.60;;
59468;SDS011;45277;52.768;18.262;2023-09-19T03:43:57;7.05;;;4.15;;
59468;SDS011;45277;52.768;18.262;2023-09-19T03:45:29;5.30;;;3.40;;
59468;SDS011;45277;52.768;18.262;2023-09-19T03:47:00;6.30;;;3.60;;
59468;SDS011;45277;52.768;18.262;2023-09-19T03:48:32;8.98;;;3.50;;
59468;SDS011;45277;52.768;18.262;2023-09-19T03:50:04;6.82;;;3.50;;
59468;SDS011;45277;52.768;18.262;2023-09-19T03:51:38;5.65;;;3.40;;
59468;SDS011;45277;52.768;18.262;2023-09-19T03:53:12;6.32;;;3.08;;
59468;SDS011;45277;52.768;18.262;2023-09-19T03:54:44;6.03;;;3.63;;
59468;SDS011;45277;52.768;18.262;2023-09-19T03:56:15;5.63;;;3.55;;
59468;SDS011;45277;52.768;18.262;2023-09-19T03:57:50;6.82;;;3.63;;
59468;SDS011;45277;52.768;18.262;2023-09-19T03:59:21;6.47;;;3.47;;
59468;SDS011;45277;52.768;18.262;2023-09-19T04:00:55;6.03;;;3.33;;
59468;SDS011;45277;52.768;18.262;2023-09-19T04:02:28;6.25;;;3.58;;
59468;SDS011;45277;52.768;18.262;2023-09-19T04:04:03;7.43;;;3.72;;
59468;SDS011;45277;52.768;18.262;2023-09-19T04:05:38;5.35;;;3.38;;
59468;SDS011;45277;52.768;18.262;2023-09-19T04:07:10;6.28;;;3.78;;
59468;SDS011;45277;52.768;18.262;2023-09-19T04:08:41;7.07;;;4.38;;
59468;SDS011;45277;52.768;18.262;2023-09-19T04:10:14;7.20;;;3.20;;
59468;SDS011;45277;52.768;18.262;2023-09-19T04:11:45;6.20;;;3.53;;
59468;SDS011;45277;52.768;18.262;2023-09-19T04:13:16;6.40;;;3.55;;
59468;SDS011;45277;52.768;18.262;2023-09-19T04:14:48;6.20;;;4.38;;
59468;SDS011;45277;52.768;18.262;2023-09-19T04:16:21;4.80;;;3.50;;
59468;SDS011;45277;52.768;18.262;2023-09-19T04:17:52;6.10;;;3.75;;
59468;SDS011;45277;52.768;18.262;2023-09-19T04:19:23;8.13;;;4.20;;
59468;SDS011;45277;52.768;18.262;2023-09-19T04:20:55;4.63;;;3.70;;
59468;SDS011;45277;52.768;18.262;2023-09-19T04:22:26;5.53;;;3.78;;
59468;SDS011;45277;52.768;18.262;2023-09-19T04:23:57;6.32;;;3.92;;
59468;SDS011;45277;52.768;18.262;2023-09-19T04:25:29;13.18;;;4.28;;
59468;SDS011;45277;52.768;18.262;2023-09-19T04:27:01;7.70;;;4.30;;
59468;SDS011;45277;52.768;18.262;2023-09-19T04:28:32;8.02;;;4.20;;
59468;SDS011;45277;52.768;18.262;2023-09-19T04:30:05;5.22;;;3.85;;
59468;SDS011;45277;52.768;18.262;2023-09-19T04:31:41;5.18;;;3.72;;
59468;SDS011;45277;52.768;18.262;2023-09-19T04:33:14;7.45;;;3.92;;
59468;SDS011;45277;52.768;18.262;2023-09-19T04:34:45;8.68;;;3.97;;
59468;SDS011;45277;52.768;18.262;2023-09-19T04:36:20;5.47;;;3.72;;
59468;SDS011;45277;52.768;18.262;2023-09-19T04:37:53;7.47;;;3.78;;
59468;SDS011;45277;52.768;18.262;2023-09-19T04:39:26;8.18;;;4.40;;
59468;SDS011;45277;52.768;18.262;2023-09-19T04:40:58;7.95;;;3.70;;
59468;SDS011;45277;52.768;18.262;2023-09-19T04:42:30;5.80;;;3.53;;
59468;SDS011;45277;52.768;18.262;2023-09-19T04:44:02;6.65;;;3.50;;
59468;SDS011;45277;52.768;18.262;2023-09-19T04:45:34;5.90;;;3.42;;
59468;SDS011;45277;52.768;18.262;2023-09-19T04:47:05;6.68;;;3.72;;
59468;SDS011;45277;52.768;18.262;2023-09-19T04:48:37;5.78;;;3.88;;
59468;SDS011;45277;52.768;18.262;2023-09-19T04:50:09;9.23;;;4.53;;
59468;SDS011;45277;52.768;18.262;2023-09-19T04:51:44;8.50;;;4.63;;
59468;SDS011;45277;52.768;18.262;2023-09-19T04:53:18;7.32;;;4.53;;
59468;SDS011;45277;52.768;18.262;2023-09-19T04:54:51;8.75;;;4.82;;
59468;SDS011;45277;52.768;18.262;2023-09-19T04:56:23;8.40;;;5.13;;
59468;SDS011;45277;52.768;18.262;2023-09-19T04:57:55;11.90;;;5.07;;
59468;SDS011;45277;52.768;18.262;2023-09-19T04:59:26;8.85;;;4.53;;
59468;SDS011;45277;52.768;18.262;2023-09-19T05:00:59;7.88;;;3.85;;
59468;SDS011;45277;52.768;18.262;2023-09-19T05:02:35;10.70;;;4.68;;
59468;SDS011;45277;52.768;18.262;2023-09-19T05:04:06;6.63;;;4.57;;
59468;SDS011;45277;52.768;18.262;2023-09-19T05:05:38;9.35;;;4.30;;
59468;SDS011;45277;52.768;18.262;2023-09-19T05:07:12;6.88;;;3.70;;
59468;SDS011;45277;52.768;18.262;2023-09-19T05:08:43;6.78;;;4.28;;
59468;SDS011;45277;52.768;18.262;2023-09-19T05:10:14;8.50;;;4.50;;
59468;SDS011;45277;52.768;18.262;2023-09-19T05:11:50;6.22;;;4.57;;
59468;SDS011;45277;52.768;18.262;2023-09-19T05:13:22;7.60;;;4.50;;
59468;SDS011;45277;52.768;18.262;2023-09-19T05:14:57;7.35;;;5.00;;
59468;SDS011;45277;52.768;18.262;2023-09-19T05:16:30;9.52;;;5.80;;
59468;SDS011;45277;52.768;18.262;2023-09-19T05:18:04;8.80;;;6.25;;
59468;SDS011;45277;52.768;18.262;2023-09-19T05:19:37;10.32;;;6.97;;
59468;SDS011;45277;52.768;18.262;2023-09-19T05:21:09;12.20;;;7.55;;
59468;SDS011;45277;52.768;18.262;2023-09-19T05:22:41;14.63;;;7.78;;
59468;SDS011;45277;52.768;18.262;2023-09-19T05:24:13;13.10;;;8.13;;
59468;SDS011;45277;52.768;18.262;2023-09-19T05:25:45;12.55;;;8.20;;
59468;SDS011;45277;52.768;18.262;2023-09-19T05:27:17;16.33;;;8.35;;
59468;SDS011;45277;52.768;18.262;2023-09-19T05:28:48;14.52;;;8.02;;
59468;SDS011;45277;52.768;18.262;2023-09-19T05:30:20;10.38;;;7.38;;
59468;SDS011;45277;52.768;18.262;2023-09-19T05:31:53;13.13;;;7.82;;
59468;SDS011;45277;52.768;18.262;2023-09-19T05:33:28;11.63;;;7.05;;
59468;SDS011;45277;52.768;18.262;2023-09-19T05:35:02;11.25;;;6.70;;
59468;SDS011;45277;52.768;18.262;2023-09-19T05:36:34;8.32;;;6.05;;
59468;SDS011;45277;52.768;18.262;2023-09-19T05:38:05;8.77;;;6.32;;
59468;SDS011;45277;52.768;18.262;2023-09-19T05:39:39;9.48;;;6.10;;
59468;SDS011;45277;52.768;18.262;2023-09-19T05:41:11;8.98;;;5.60;;
59468;SDS011;45277;52.768;18.262;2023-09-19T05:42:44;9.00;;;6.18;;
59468;SDS011;45277;52.768;18.262;2023-09-19T05:44:16;11.77;;;7.68;;
59468;SDS011;45277;52.768;18.262;2023-09-19T05:45:47;10.75;;;7.20;;
59468;SDS011;45277;52.768;18.262;2023-09-19T05:47:19;9.32;;;6.68;;
59468;SDS011;45277;52.768;18.262;2023-09-19T05:48:52;8.68;;;7.00;;
59468;SDS011;45277;52.768;18.262;2023-09-19T05:50:24;14.30;;;7.35;;
59468;SDS011;45277;52.768;18.262;2023-09-19T05:51:55;10.60;;;7.70;;
59468;SDS011;45277;52.768;18.262;2023-09-19T05:53:27;11.35;;;6.97;;
59468;SDS011;45277;52.768;18.262;2023-09-19T05:54:59;9.70;;;5.93;;
59468;SDS011;45277;52.768;18.262;2023-09-19T05:56:30;9.73;;;5.95;;
59468;SDS011;45277;52.768;18.262;2023-09-19T05:58:02;5.03;;;4.15;;
59468;SDS011;45277;52.768;18.262;2023-09-19T05:59:35;5.20;;;4.07;;
59468;SDS011;45277;52.768;18.262;2023-09-19T06:01:06;6.43;;;4.50;;
59468;SDS011;45277;52.768;18.262;2023-09-19T06:02:38;6.95;;;3.90;;
59468;SDS011;45277;52.768;18.262;2023-09-19T06:04:10;7.30;;;4.22;;
59468;SDS011;45277;52.768;18.262;2023-09-19T06:05:42;8.10;;;4.20;;
59468;SDS011;45277;52.768;18.262;2023-09-19T06:07:13;9.23;;;4.53;;
59468;SDS011;45277;52.768;18.262;2023-09-19T06:08:47;7.80;;;4.40;;
59468;SDS011;45277;52.768;18.262;2023-09-19T06:10:21;6.85;;;4.45;;
59468;SDS011;45277;52.768;18.262;2023-09-19T06:11:53;5.45;;;4.28;;
59468;SDS011;45277;52.768;18.262;2023-09-19T06:13:28;11.75;;;3.78;;
59468;SDS011;45277;52.768;18.262;2023-09-19T06:14:59;5.03;;;3.90;;
59468;SDS011;45277;52.768;18.262;2023-09-19T06:16:32;7.93;;;4.68;;
59468;SDS011;45277;52.768;18.262;2023-09-19T06:18:03;6.97;;;4.80;;
59468;SDS011;45277;52.768;18.262;2023-09-19T06:19:35;6.72;;;4.53;;
59468;SDS011;45277;52.768;18.262;2023-09-19T06:21:07;5.38;;;4.38;;
59468;SDS011;45277;52.768;18.262;2023-09-19T06:22:39;6.72;;;4.45;;
59468;SDS011;45277;52.768;18.262;2023-09-19T06:24:13;8.20;;;4.75;;
59468;SDS011;45277;52.768;18.262;2023-09-19T06:25:45;7.07;;;4.53;;
59468;SDS011;45277;52.768;18.262;2023-09-19T06:27:17;5.97;;;4.72;;
59468;SDS011;45277;52.768;18.262;2023-09-19T06:28:48;7.82;;;4.10;;
59468;SDS011;45277;52.768;18.262;2023-09-19T06:30:21;8.32;;;4.68;;
59468;SDS011;45277;52.768;18.262;2023-09-19T06:31:54;5.63;;;3.97;;
59468;SDS011;45277;52.768;18.262;2023-09-19T06:33:26;12.00;;;4.63;;
59468;SDS011;45277;52.768;18.262;2023-09-19T06:34:57;5.30;;;4.15;;
59468;SDS011;45277;52.768;18.262;2023-09-19T06:36:29;5.50;;;4.13;;
59468;SDS011;45277;52.768;18.262;2023-09-19T06:38:04;4.25;;;3.60;;
59468;SDS011;45277;52.768;18.262;2023-09-19T06:39:37;7.65;;;4.32;;
59468;SDS011;45277;52.768;18.262;2023-09-19T06:41:09;6.20;;;4.05;;
59468;SDS011;45277;52.768;18.262;2023-09-19T06:42:44;4.40;;;3.90;;
59468;SDS011;45277;52.768;18.262;2023-09-19T06:44:21;5.68;;;4.13;;
59468;SDS011;45277;52.768;18.262;2023-09-19T06:45:55;5.25;;;4.30;;
59468;SDS011;45277;52.768;18.262;2023-09-19T06:47:26;5.55;;;3.20;;
59468;SDS011;45277;52.768;18.262;2023-09-19T06:48:58;6.03;;;3.83;;
59468;SDS011;45277;52.768;18.262;2023-09-19T06:50:29;6.32;;;4.78;;
59468;SDS011;45277;52.768;18.262;2023-09-19T06:52:04;6.43;;;3.78;;
59468;SDS011;45277;52.768;18.262;2023-09-19T06:53:36;4.80;;;3.78;;
59468;SDS011;45277;52.768;18.262;2023-09-19T06:55:08;6.45;;;4.28;;
59468;SDS011;45277;52.768;18.262;2023-09-19T06:56:43;7.38;;;4.80;;
59468;SDS011;45277;52.768;18.262;2023-09-19T06:58:15;7.13;;;4.13;;
59468;SDS011;45277;52.768;18.262;2023-09-19T06:59:47;7.10;;;4.55;;
59468;SDS011;45277;52.768;18.262;2023-09-19T07:01:18;6.45;;;4.22;;
59468;SDS011;45277;52.768;18.262;2023-09-19T07:04:31;6.03;;;4.15;;
59468;SDS011;45277;52.768;18.262;2023-09-19T07:06:03;4.00;;;3.60;;
59468;SDS011;45277;52.768;18.262;2023-09-19T07:07:36;6.82;;;4.25;;
59468;SDS011;45277;52.768;18.262;2023-09-19T07:09:07;6.50;;;4.07;;
59468;SDS011;45277;52.768;18.262;2023-09-19T07:10:41;5.72;;;3.92;;
59468;SDS011;45277;52.768;18.262;2023-09-19T07:12:19;6.15;;;3.95;;
59468;SDS011;45277;52.768;18.262;2023-09-19T07:13:52;4.55;;;3.85;;
59468;SDS011;45277;52.768;18.262;2023-09-19T07:15:24;5.38;;;3.70;;
59468;SDS011;45277;52.768;18.262;2023-09-19T07:16:56;5.40;;;3.92;;
59468;SDS011;45277;52.768;18.262;2023-09-19T07:18:30;7.05;;;4.13;;
59468;SDS011;45277;52.768;18.262;2023-09-19T07:20:05;5.22;;;4.10;;
59468;SDS011;45277;52.768;18.262;2023-09-19T07:21:38;5.53;;;4.07;;
59468;SDS011;45277;52.768;18.262;2023-09-19T07:23:10;4.65;;;3.92;;
59468;SDS011;45277;52.768;18.262;2023-09-19T07:24:48;6.28;;;3.65;;
59468;SDS011;45277;52.768;18.262;2023-09-19T07:26:20;7.55;;;4.03;;
59468;SDS011;45277;52.768;18.262;2023-09-19T07:27:52;8.80;;;4.00;;
59468;SDS011;45277;52.768;18.262;2023-09-19T07:29:25;5.22;;;3.55;;
59468;SDS011;45277;52.768;18.262;2023-09-19T07:30:57;7.82;;;4.03;;
59468;SDS011;45277;52.768;18.262;2023-09-19T07:32:32;4.95;;;3.63;;
59468;SDS011;45277;52.768;18.262;2023-09-19T07:34:05;4.80;;;3.83;;
59468;SDS011;45277;52.768;18.262;2023-09-19T07:35:38;4.78;;;4.10;;
59468;SDS011;45277;52.768;18.262;2023-09-19T07:37:12;5.93;;;5.13;;
59468;SDS011;45277;52.768;18.262;2023-09-19T07:38:46;7.78;;;5.05;;
59468;SDS011;45277;52.768;18.262;2023-09-19T07:40:19;10.57;;;7.07;;
59468;SDS011;45277;52.768;18.262;2023-09-19T07:41:54;6.40;;;4.78;;
59468;SDS011;45277;52.768;18.262;2023-09-19T07:43:25;6.53;;;4.93;;
59468;SDS011;45277;52.768;18.262;2023-09-19T07:44:57;8.05;;;4.65;;
59468;SDS011;45277;52.768;18.262;2023-09-19T07:46:30;5.70;;;4.90;;
59468;SDS011;45277;52.768;18.262;2023-09-19T07:48:02;6.93;;;5.53;;
59468;SDS011;45277;52.768;18.262;2023-09-19T07:49:35;8.38;;;7.43;;
59468;SDS011;45277;52.768;18.262;2023-09-19T07:51:07;5.53;;;4.68;;
59468;SDS011;45277;52.768;18.262;2023-09-19T07:52:39;6.05;;;4.00;;
59468;SDS011;45277;52.768;18.262;2023-09-19T07:54:11;10.98;;;8.48;;
59468;SDS011;45277;52.768;18.262;2023-09-19T07:55:43;8.95;;;6.15;;
59468;SDS011;45277;52.768;18.262;2023-09-19T07:57:18;9.57;;;6.50;;
59468;SDS011;45277;52.768;18.262;2023-09-19T07:58:50;8.85;;;5.85;;
59468;SDS011;45277;52.768;18.262;2023-09-19T08:00:22;9.68;;;5.75;;
59468;SDS011;45277;52.768;18.262;2023-09-19T08:01:54;8.88;;;5.57;;
59468;SDS011;45277;52.768;18.262;2023-09-19T08:03:25;8.68;;;6.90;;
59468;SDS011;45277;52.768;18.262;2023-09-19T08:04:57;11.75;;;5.65;;
59468;SDS011;45277;52.768;18.262;2023-09-19T08:06:31;10.68;;;5.47;;
59468;SDS011;45277;52.768;18.262;2023-09-19T08:08:02;8.65;;;5.75;;
59468;SDS011;45277;52.768;18.262;2023-09-19T08:09:34;8.02;;;5.93;;
59468;SDS011;45277;52.768;18.262;2023-09-19T08:11:06;9.98;;;5.50;;
59468;SDS011;45277;52.768;18.262;2023-09-19T08:12:42;8.43;;;4.75;;
59468;SDS011;45277;52.768;18.262;2023-09-19T08:14:17;5.45;;;3.67;;
59468;SDS011;45277;52.768;18.262;2023-09-19T08:15:48;3.85;;;3.25;;
59468;SDS011;45277;52.768;18.262;2023-09-19T08:17:20;5.18;;;4.00;;
59468;SDS011;45277;52.768;18.262;2023-09-19T08:18:53;5.40;;;4.05;;
59468;SDS011;45277;52.768;18.262;2023-09-19T08:20:26;7.15;;;4.75;;
59468;SDS011;45277;52.768;18.262;2023-09-19T08:21:58;5.97;;;5.03;;
59468;SDS011;45277;52.768;18.262;2023-09-19T08:23:32;5.88;;;4.10;;
59468;SDS011;45277;52.768;18.262;2023-09-19T08:25:03;4.57;;;3.88;;
59468;SDS011;45277;52.768;18.262;2023-09-19T08:26:37;8.65;;;4.70;;
59468;SDS011;45277;52.768;18.262;2023-09-19T08:28:10;13.80;;;6.68;;
59468;SDS011;45277;52.768;18.262;2023-09-19T08:29:43;12.30;;;9.13;;
59468;SDS011;45277;52.768;18.262;2023-09-19T08:31:15;12.73;;;11.02;;
59468;SDS011;45277;52.768;18.262;2023-09-19T08:32:47;11.88;;;10.63;;
59468;SDS011;45277;52.768;18.262;2023-09-19T08:34:19;10.02;;;6.72;;
59468;SDS011;45277;52.768;18.262;2023-09-19T08:35:52;8.93;;;6.50;;
59468;SDS011;45277;52.768;18.262;2023-09-19T08:37:23;9.27;;;7.22;;
59468;SDS011;45277;52.768;18.262;2023-09-19T08:38:54;11.68;;;5.35;;
59468;SDS011;45277;52.768;18.262;2023-09-19T08:40:27;8.70;;;4.85;;
59468;SDS011;45277;52.768;18.262;2023-09-19T08:42:00;5.82;;;4.20;;
59468;SDS011;45277;52.768;18.262;2023-09-19T08:43:32;5.78;;;4.32;;
59468;SDS011;45277;52.768;18.262;2023-09-19T08:45:05;4.95;;;3.22;;
59468;SDS011;45277;52.768;18.262;2023-09-19T08:46:36;4.30;;;2.97;;
59468;SDS011;45277;52.768;18.262;2023-09-19T08:48:19;3.92;;;3.13;;
59468;SDS011;45277;52.768;18.262;2023-09-19T08:50:01;6.13;;;3.40;;
59468;SDS011;45277;52.768;18.262;2023-09-19T08:54:26;5.45;;;2.85;;
59468;SDS011;45277;52.768;18.262;2023-09-19T08:56:02;5.05;;;2.58;;
59468;SDS011;45277;52.768;18.262;2023-09-19T08:57:37;4.10;;;3.15;;
59468;SDS011;45277;52.768;18.262;2023-09-19T08:59:12;4.03;;;3.05;;
59468;SDS011;45277;52.768;18.262;2023-09-19T09:00:45;3.72;;;3.08;;
59468;SDS011;45277;52.768;18.262;2023-09-19T09:02:20;3.55;;;3.13;;
59468;SDS011;45277;52.768;18.262;2023-09-19T09:03:53;2.83;;;2.60;;
59468;SDS011;45277;52.768;18.262;2023-09-19T09:05:25;4.63;;;2.80;;
59468;SDS011;45277;52.768;18.262;2023-09-19T09:06:59;4.85;;;2.85;;
59468;SDS011;45277;52.768;18.262;2023-09-19T09:08:31;4.82;;;2.70;;
59468;SDS011;45277;52.768;18.262;2023-09-19T09:10:03;3.63;;;3.17;;
59468;SDS011;45277;52.768;18.262;2023-09-19T09:11:35;5.05;;;3.03;;
59468;SDS011;45277;52.768;18.262;2023-09-19T09:13:10;3.83;;;2.30;;
59468;SDS011;45277;52.768;18.262;2023-09-19T09:14:45;5.40;;;2.53;;
59468;SDS011;45277;52.768;18.262;2023-09-19T09:16:19;3.83;;;2.83;;
59468;SDS011;45277;52.768;18.262;2023-09-19T09:17:51;4.10;;;3.63;;
59468;SDS011;45277;52.768;18.262;2023-09-19T09:19:26;3.63;;;2.80;;
59468;SDS011;45277;52.768;18.262;2023-09-19T09:20:57;8.27;;;3.20;;
59468;SDS011;45277;52.768;18.262;2023-09-19T09:22:29;3.75;;;2.90;;
59468;SDS011;45277;52.768;18.262;2023-09-19T09:24:35;3.30;;;2.17;;
59468;SDS011;45277;52.768;18.262;2023-09-19T09:26:01;5.80;;;2.65;;
59468;SDS011;45277;52.768;18.262;2023-09-19T09:27:37;3.25;;;2.00;;
59468;SDS011;45277;52.768;18.262;2023-09-19T09:29:11;3.03;;;2.70;;
59468;SDS011;45277;52.768;18.262;2023-09-19T09:30:42;2.67;;;2.35;;
59468;SDS011;45277;52.768;18.262;2023-09-19T09:32:18;5.50;;;3.17;;
59468;SDS011;45277;52.768;18.262;2023-09-19T09:33:55;3.05;;;2.13;;
59468;SDS011;45277;52.768;18.262;2023-09-19T09:35:28;3.05;;;2.75;;
59468;SDS011;45277;52.768;18.262;2023-09-19T09:36:59;3.08;;;2.67;;